地図

経路データ

SID SEASON NUMBER BASIN SUBBASIN NAME ISO_TIME NATURE LAT LON WMO_WIND WMO_PRES WMO_AGENCY TRACK_TYPE DIST2LAND LANDFALL IFLAG USA_AGENCY USA_ATCF_ID USA_LAT USA_LON USA_RECORD USA_STATUS USA_WIND USA_PRES USA_SSHS USA_R34_NE USA_R34_SE USA_R34_SW USA_R34_NW USA_R50_NE USA_R50_SE USA_R50_SW USA_R50_NW USA_R64_NE USA_R64_SE USA_R64_SW USA_R64_NW USA_POCI USA_ROCI USA_RMW USA_EYE TOKYO_LAT TOKYO_LON TOKYO_GRADE TOKYO_WIND TOKYO_PRES TOKYO_R50_DIR TOKYO_R50_LONG TOKYO_R50_SHORT TOKYO_R30_DIR TOKYO_R30_LONG TOKYO_R30_SHORT TOKYO_LAND CMA_LAT CMA_LON CMA_CAT CMA_WIND CMA_PRES HKO_LAT HKO_LON HKO_CAT HKO_WIND HKO_PRES NEWDELHI_LAT NEWDELHI_LON NEWDELHI_GRADE NEWDELHI_WIND NEWDELHI_PRES NEWDELHI_CI NEWDELHI_DP NEWDELHI_POCI REUNION_LAT REUNION_LON REUNION_TYPE REUNION_WIND REUNION_PRES REUNION_TNUM REUNION_CI REUNION_RMW REUNION_R34_NE REUNION_R34_SE REUNION_R34_SW REUNION_R34_NW REUNION_R50_NE REUNION_R50_SE REUNION_R50_SW REUNION_R50_NW REUNION_R64_NE REUNION_R64_SE REUNION_R64_SW REUNION_R64_NW BOM_LAT BOM_LON BOM_TYPE BOM_WIND BOM_PRES BOM_TNUM BOM_CI BOM_RMW BOM_R34_NE BOM_R34_SE BOM_R34_SW BOM_R34_NW BOM_R50_NE BOM_R50_SE BOM_R50_SW BOM_R50_NW BOM_R64_NE BOM_R64_SE BOM_R64_SW BOM_R64_NW BOM_ROCI BOM_POCI BOM_EYE BOM_POS_METHOD BOM_PRES_METHOD NADI_LAT NADI_LON NADI_CAT NADI_WIND NADI_PRES WELLINGTON_LAT WELLINGTON_LON WELLINGTON_WIND WELLINGTON_PRES DS824_LAT DS824_LON DS824_STAGE DS824_WIND DS824_PRES TD9636_LAT TD9636_LON TD9636_STAGE TD9636_WIND TD9636_PRES TD9635_LAT TD9635_LON TD9635_WIND TD9635_PRES TD9635_ROCI NEUMANN_LAT NEUMANN_LON NEUMANN_CLASS NEUMANN_WIND NEUMANN_PRES MLC_LAT MLC_LON MLC_CLASS MLC_WIND MLC_PRES USA_GUST BOM_GUST BOM_GUST_PER REUNION_GUST REUNION_GUST_PER USA_SEAHGT USA_SEARAD_NE USA_SEARAD_SE USA_SEARAD_SW USA_SEARAD_NW STORM_SPEED STORM_DIR
1945196N09133 1945 34 WP MM OPAL 1945-07-14 12:00:00 TS 9.30000 132.600 main 684 662 O________O_O__ jtwc_wp WP061945 9.30000 132.600 20 -1 9.30000 132.600 TC 20 9.30000 132.600 20 1004 120 10 315
1945196N09133 1945 34 WP MM OPAL 1945-07-14 15:00:00 TS 9.64778 132.249 main 651 627 P________P_P__ WP061945 9.66259 132.240 20 -1 9.66259 132.240 TC 20 9.66259 132.240 20 1004 120 10 315
1945196N09133 1945 34 WP MM OPAL 1945-07-14 18:00:00 TS 9.97881 131.913 main 629 604 O________O_O__ jtwc_wp WP061945 10.0000 131.900 20 -1 10.0000 131.900 TC 20 10.0000 131.900 20 1004 120 9 315
1945196N09133 1945 34 WP MM OPAL 1945-07-14 21:00:00 TS 10.2861 131.601 main 604 577 P________P_P__ WP061945 10.2999 131.592 20 -1 10.2999 131.592 TC 20 10.2999 131.592 20 1003 120 9 316
1945196N09133 1945 34 WP MM OPAL 1945-07-15 00:00:00 TS 10.6000 131.300 main 580 559 O________O_O__ jtwc_wp WP061945 10.6000 131.300 20 -1 10.6000 131.300 TC 20 10.6000 131.300 20 1003 120 9 318
1945196N09133 1945 34 WP MM OPAL 1945-07-15 03:00:00 TS 10.9422 130.998 main 559 536 P________P_P__ WP061945 10.9275 131.007 20 -1 10.9275 131.007 TC 20 10.9275 131.007 20 1003 120 9 320
1945196N09133 1945 34 WP MM OPAL 1945-07-15 06:00:00 TS 11.3231 130.686 main 536 506 O________O_O__ jtwc_wp WP061945 11.3000 130.700 20 -1 11.3000 130.700 TC 20 11.3000 130.700 20 1004 120 10 322
1945196N09133 1945 34 WP MM OPAL 1945-07-15 09:00:00 TS 11.7574 130.342 main 498 477 P________P_P__ WP061945 11.7425 130.350 20 -1 11.7425 130.350 TC 20 11.7425 130.350 20 1004 120 11 323
1945196N09133 1945 34 WP MM OPAL 1945-07-15 12:00:00 TS 12.2000 130.000 main 477 456 O________O_O__ jtwc_wp WP061945 12.2000 130.000 20 -1 12.2000 130.000 TC 20 12.2000 130.000 20 1004 120 11 323
1945196N09133 1945 34 WP MM OPAL 1945-07-15 15:00:00 TS 12.6089 129.692 main 458 430 P________P_P__ WP061945 12.6224 129.692 20 -1 12.6224 129.692 TC 20 12.6224 129.692 20 1004 120 10 323
1945196N09133 1945 34 WP MM OPAL 1945-07-15 18:00:00 TS 12.9806 129.398 main 432 406 O________O_O__ jtwc_wp WP061945 13.0000 129.400 20 -1 13.0000 129.400 TC 20 13.0000 129.400 20 1004 120 9 320
1945196N09133 1945 34 WP MM OPAL 1945-07-15 21:00:00 TS 13.2969 129.099 main 409 390 P________P_P__ WP061945 13.3075 129.100 20 -1 13.3075 129.100 TC 20 13.3075 129.100 20 1003 120 9 317
1945196N09133 1945 34 WP MM OPAL 1945-07-16 00:00:00 TS 13.6000 128.800 main 390 376 O________O_O__ jtwc_wp WP061945 13.6000 128.800 20 -1 13.6000 128.800 TC 20 13.6000 128.800 20 1003 120 9 318
1945196N09133 1945 34 WP MM OPAL 1945-07-16 03:00:00 TS 13.9465 128.497 main 376 368 P________P_P__ WP061945 13.9500 128.500 25 -1 13.9500 128.500 TC 25 13.9500 128.500 25 1002 120 9 320
1945196N09133 1945 34 WP MM OPAL 1945-07-16 06:00:00 TS 14.2912 128.194 main 375 366 O________O_O__ jtwc_wp WP061945 14.3000 128.200 30 -1 14.3000 128.200 TC 30 14.3000 128.200 30 1002 120 9 318
1945196N09133 1945 34 WP MM OPAL 1945-07-16 09:00:00 TS 14.6078 127.889 main 373 362 P________P_P__ WP061945 14.6150 127.892 37 0 14.6150 127.892 TC 37 14.6150 127.892 37 1000 120 8 317
1945196N09133 1945 34 WP MM OPAL 1945-07-16 12:00:00 TS 14.9000 127.600 main 362 340 O________O_O__ jtwc_wp WP061945 14.9000 127.600 45 0 14.9000 127.600 TC 45 14.9000 127.600 45 999 120 8 310
1945196N09133 1945 34 WP MM OPAL 1945-07-16 15:00:00 TS 15.1074 127.268 main 340 325 P________P_P__ WP061945 15.1425 127.335 45 0 15.1425 127.335 TC 45 15.1425 127.335 45 998 120 7 311
1945196N09133 1945 34 WP MM OPAL 1945-07-16 18:00:00 TS 15.3470 127.059 main 330 326 O________O_O__ jtwc_wp WP061945 15.4000 127.100 45 0 15.4000 127.100 TC 45 15.4000 127.100 45 997 120 6 331
1945196N09133 1945 34 WP MM OPAL 1945-07-16 21:00:00 TS 15.6607 126.946 main 335 335 P________POP__ WP061945 15.7199 126.915 42 0 15.7199 126.915 TC 42 15.3000 127.100 7 15.7199 126.915 42 998 120 7 343
1945196N09133 1945 34 WP MM OPAL 1945-07-17 00:00:00 TS 16.0308 126.842 main 348 348 O________OPO__ jtwc_wp WP061945 16.1000 126.700 40 0 16.1000 126.700 TC 40 15.8096 127.326 7 16.1000 126.700 40 999 120 9 338
1945196N09133 1945 34 WP MM OPAL 1945-07-17 03:00:00 TS 16.4730 126.613 main 373 373 P________PPP__ WP061945 16.5276 126.350 37 0 16.5276 126.350 TC 37 16.3152 127.513 7 16.5276 126.350 37 999 150 10 333
1945196N09133 1945 34 WP MM OPAL 1945-07-17 06:00:00 TS 16.9557 126.356 main 404 393 O________OPO__ jtwc_wp WP061945 17.0000 126.000 35 0 17.0000 126.000 TC 35 16.8132 127.618 7 17.0000 126.000 35 999 180 11 336
1945196N09133 1945 34 WP MM OPAL 1945-07-17 09:00:00 TS 17.4488 126.159 main 395 382 P________POP__ WP061945 17.4849 125.785 35 0 17.4849 125.785 TC 35 17.3000 127.600 7 17.4849 125.785 35 999 210 11 340
1945196N09133 1945 34 WP MM OPAL 1945-07-17 12:00:00 TS 17.9542 125.966 main 387 358 O________OPO__ jtwc_wp WP061945 18.0000 125.600 35 0 18.0000 125.600 TC 35 17.7710 127.432 7 18.0000 125.600 35 999 240 11 337
1945196N09133 1945 34 WP MM OPAL 1945-07-17 15:00:00 TS 18.4758 125.702 main 358 340 P________PPP__ WP061945 18.5576 125.320 40 0 18.5576 125.320 TC 40 18.2177 127.144 7 18.5576 125.320 40 998 240 11 335
1945196N09133 1945 34 WP MM OPAL 1945-07-17 18:00:00 TS 18.9831 125.469 main 343 333 O________OPO__ jtwc_wp WP061945 19.1000 125.100 45 0 19.1000 125.100 TC 45 18.6305 126.784 7 19.1000 125.100 45 997 240 10 341
1945196N09133 1945 34 WP MM OPAL 1945-07-17 21:00:00 TS 19.4277 125.349 main 334 334 P________POP__ WP061945 19.5499 125.062 47 0 19.5499 125.062 TC 47 19.0000 126.400 7 19.5499 125.062 47 996 240 9 349
1945196N09133 1945 34 WP MM OPAL 1945-07-18 00:00:00 TS 19.8531 125.285 main 357 357 O________OPO__ jtwc_wp WP061945 20.0000 125.100 50 0 20.0000 125.100 TC 50 19.2657 126.023 7 20.0000 125.100 50 995 240 9 351
1945196N09133 1945 34 WP MM OPAL 1945-07-18 03:00:00 TS 20.3295 125.196 main 371 371 P________PPP__ WP061945 20.5425 125.093 50 0 20.5425 125.093 TC 50 19.4981 125.639 7 20.5425 125.093 50 994 240 10 352
1945196N09133 1945 34 WP MM OPAL 1945-07-18 06:00:00 TS 20.8212 125.132 main 397 397 O________OPO__ jtwc_wp WP061945 21.1000 125.100 50 0 21.1000 125.100 TC 50 19.7564 125.286 7 21.1000 125.100 50 993 240 10 355
1945196N09133 1945 34 WP MM OPAL 1945-07-18 09:00:00 TS 21.3001 125.110 main 430 406 P________POP__ WP061945 21.6075 125.142 52 0 21.6075 125.142 TC 52 20.1000 125.000 7 21.6075 125.142 52 992 240 10 0
1945196N09133 1945 34 WP MM OPAL 1945-07-18 12:00:00 TS 21.7922 125.104 main 406 389 O________OPO__ jtwc_wp WP061945 22.1000 125.200 55 0 22.1000 125.200 TC 55 20.5611 124.718 7 22.1000 125.200 55 991 240 10 0
1945196N09133 1945 34 WP MM OPAL 1945-07-18 15:00:00 TS 22.3059 125.097 main 389 377 P________PPP__ WP061945 22.6000 125.228 55 0 22.6000 125.228 TC 55 21.1187 124.521 7 22.6000 125.228 55 990 270 11 2
1945196N09133 1945 34 WP MM OPAL 1945-07-18 18:00:00 TS 22.8363 125.151 main 385 365 O________OPO__ jtwc_wp WP061945 23.1000 125.300 55 0 23.1000 125.300 TC 55 21.7668 124.464 7 23.1000 125.300 55 990 300 11 10
1945196N09133 1945 34 WP MM OPAL 1945-07-18 21:00:00 TS 23.3867 125.312 main 366 362 P________POP__ WP061945 23.6075 125.477 55 0 23.6075 125.477 TC 55 22.5000 124.600 7 23.6075 125.477 55 989 270 12 19
1945196N09133 1945 34 WP MM OPAL 1945-07-19 00:00:00 TS 23.9397 125.567 main 380 377 O________OPO__ jtwc_wp WP061945 24.1000 125.700 55 0 24.1000 125.700 TC 55 23.2984 125.037 7 24.1000 125.700 55 988 240 12 24
1945196N09133 1945 34 WP MM OPAL 1945-07-19 03:00:00 TS 24.4799 125.845 main 387 387 P________PPP__ WP061945 24.5499 125.893 57 0 24.5499 125.893 TC 57 24.1715 125.664 7 24.5499 125.893 57 987 210 12 26
1945196N09133 1945 34 WP MM OPAL 1945-07-19 06:00:00 TS 25.0266 126.152 main 422 422 O________OPO__ jtwc_wp WP061945 25.0000 126.100 60 0 25.0000 126.100 TC 60 25.0833 126.360 7 25.0000 126.100 60 986 180 13 27
1945196N09133 1945 34 WP MM OPAL 1945-07-19 09:00:00 TS 25.5998 126.473 main 456 456 P________POP__ WP061945 25.4925 126.343 62 0 25.4925 126.343 TC 62 26.0000 127.000 7 25.4925 126.343 62 986 180 13 26
1945196N09133 1945 34 WP MM OPAL 1945-07-19 12:00:00 TS 26.1747 126.766 main 499 499 O________OPO__ jtwc_wp WP061945 26.0000 126.600 65 1 26.0000 126.600 TC 65 26.8737 127.431 7 26.0000 126.600 65 986 180 12 23
1945196N09133 1945 34 WP MM OPAL 1945-07-19 15:00:00 TS 26.7372 127.013 main 534 518 P________PPP__ WP061945 26.4999 126.835 65 1 26.4999 126.835 TC 65 27.7486 127.781 7 26.4999 126.835 65 986 180 12 22
1945196N09133 1945 34 WP MM OPAL 1945-07-19 18:00:00 TS 27.3030 127.272 main 518 460 O________OPO__ jtwc_wp WP061945 27.0000 127.100 65 1 27.0000 127.100 TC 65 28.6242 128.065 7 27.0000 127.100 65 986 180 12 23
1945196N09133 1945 34 WP MM OPAL 1945-07-19 21:00:00 TS 27.8616 127.561 main 445 383 P________POP__ WP061945 27.4697 127.399 65 1 27.4697 127.399 TC 65 29.5000 128.300 7 27.4697 127.399 65 987 180 13 26
1945196N09133 1945 34 WP MM OPAL 1945-07-20 00:00:00 TS 28.4820 127.930 main 373 288 O________OPO__ jtwc_wp WP061945 28.0000 127.800 65 1 28.0000 127.800 TC 65 30.3754 128.502 7 28.0000 127.800 65 988 180 15 28
1945196N09133 1945 34 WP MM OPAL 1945-07-20 03:00:00 TS 29.1963 128.365 main 282 193 P________PPP__ WP061945 28.6308 128.261 65 1 28.6308 128.261 TC 65 31.2505 128.680 7 28.6308 128.261 65 989 180 17 34
1945196N09133 1945 34 WP MM OPAL 1945-07-20 06:00:00 TS 29.8887 129.030 main 184 69 O________OPO__ jtwc_wp WP061945 29.4000 129.000 65 1 29.4000 129.000 TC 65 32.1254 128.843 7 29.4000 129.000 65 990 180 21 45
1945196N09133 1945 34 WP MM OPAL 1945-07-20 09:00:00 TS 30.6780 130.104 main 56 0 P________POP__ WP061945 30.3513 130.192 62 0 30.3513 130.192 TC 62 33.0000 129.000 7 30.3513 130.192 62 991 180 26 53
1945196N09133 1945 34 WP MM OPAL 1945-07-20 12:00:00 TS 31.4449 131.473 main 9 9 O________O_O__ jtwc_wp WP061945 31.3000 131.600 60 0 31.3000 131.600 TC 60 7 31.3000 131.600 60 993 180 27 60
1945196N09133 1945 34 WP MM OPAL 1945-07-20 15:00:00 TS 32.0554 132.874 main 67 52 P________P_P__ WP061945 32.0793 132.850 57 0 32.0793 132.850 TC 57 7 32.0793 132.850 57 994 210 26 62
1945196N09133 1945 34 WP MM OPAL 1945-07-20 18:00:00 TS 32.6719 134.239 main 55 34 O________O_O__ jtwc_wp WP061945 32.7000 134.200 55 0 32.7000 134.200 TC 55 7 32.7000 134.200 55 995 240 27 66
1945196N09133 1945 34 WP MM OPAL 1945-07-20 21:00:00 TS 33.1645 135.829 main 22 22 P________P_P__ WP061945 33.1828 135.813 52 0 33.1828 135.813 TC 52 33.1828 135.813 52 996 240 29 73
1945196N09133 1945 34 WP MM OPAL 1945-07-21 00:00:00 TS 33.5000 137.500 main 104 104 O________O_O__ jtwc_wp WP061945 33.5000 137.500 50 0 33.5000 137.500 TC 50 33.5000 137.500 50 997 240 29 81
1945196N09133 1945 34 WP MM OPAL 1945-07-21 03:00:00 TS 33.6351 139.204 main 117 117 P________P_P__ WP061945 33.6220 139.233 45 0 33.6220 139.233 TC 45 33.6873 139.087 45 997 210 26 83
1945196N09133 1945 34 WP MM OPAL 1945-07-21 06:00:00 TS 33.8000 140.600 main 138 115 O________O_O__ jtwc_wp WP061945 33.8000 140.600 40 0 33.8000 140.600 TC 40 33.8000 140.600 40 998 180 18 64
1945196N09133 1945 34 WP MM OPAL 1945-07-21 09:00:00 TS 34.4184 141.170 main 115 93 P________P____ WP061945 34.4184 141.170 37 0 34.4184 141.170 TC 37 14 32
1945196N09133 1945 34 WP MM OPAL 1945-07-21 12:00:00 TS 35.0000 141.500 main 95 92 O________O____ jtwc_wp WP061945 35.0000 141.500 35 0 35.0000 141.500 TC 35 11 51
1945196N09133 1945 34 WP MM OPAL 1945-07-21 15:00:00 TS 35.0894 142.169 main 135 135 P________P____ WP061945 35.0894 142.169 32 -1 35.0894 142.169 TC 32 12 90
1945196N09133 1945 34 WP MM OPAL 1945-07-21 18:00:00 TS 35.0000 143.000 main 205 205 O________O____ jtwc_wp WP061945 35.0000 143.000 30 -1 35.0000 143.000 TC 30 15 95
1945196N09133 1945 34 WP MM OPAL 1945-07-21 21:00:00 TS 34.9720 143.964 main 291 291 P________P____ WP061945 34.9720 143.964 27 -1 34.9720 143.964 TC 27 16 90
1945196N09133 1945 34 WP MM OPAL 1945-07-22 00:00:00 TS 35.0000 145.000 main 379 O________O____ jtwc_wp WP061945 35.0000 145.000 25 -1 35.0000 145.000 TC 25 17 88

デジタル台風データ・検索

IBTrACS Databaseについて

本データベースは、米国NOAAが公開する1842年以降の世界の熱帯低気圧のベストトラックデータアーカイブInternational Best Track Archive for Climate Stewardship (IBTrACS)を、ウェブで閲覧しやすい形式に変換したものです。

最終更新日:2021-10-21